Cotton, Minnesota
Current Conditions -  °F | °C
As of 10:51 AM on Friday 24 Oct 2014 (Local Time) from KEVM Reporting Station
Clear Clear  
Wind Chill: 54°   Ceiling: Unl
Heat Index: 54°   Visibility: 10mi
Dew Point: 48°   Wind: 10mph
Humidity: 82%   Direction: 200°SSW
Pressure: 29.83"   Gusts: NA
Location:  47.17°N, 92.48°W
Report Text: KEVM 241551Z AUTO 20009KT 10SM CLR 12/09 A2983 RMK AO2
Loading
Personal Weather Stations






























Interactive Weather Map
Tropical Storm Tracking
New forecast layout! Learn more

10-Day Weather Forecast

Advertisements
Track Severe Weather on mobile